This is the latest recevied weather packets stored in our database for station/object LRIA. If no packets are shown the sender has not sent any weather packets the latest 10 day(s).
| Time | Temp. | Humidity | Pressure | Rain* | Wind** | Luminosity | Snow |
|---|---|---|---|---|---|---|---|
| 1777880904 | 17.22° C | 45% | 1016 hPa | - | - | - | - |
| 1777880003 | 17.22° C | 45% | 1016 hPa | - | - | - | - |
| 1777879103 | 16.11° C | 48% | 1016 hPa | - | - | - | - |
| 1777878205 | 16.11° C | 48% | 1016 hPa | - | - | - | - |
| 1777877303 | 13.89° C | 55% | 1016 hPa | - | - | - | - |
| 1777876404 | 13.89° C | 55% | 1016 hPa | - | - | - | - |
| 1777875504 | 12.78° C | 55% | 1016 hPa | - | - | - | - |
| 1777874604 | 12.78° C | 55% | 1016 hPa | - | - | - | - |
| 1777873707 | 12.22° C | 54% | 1016 hPa | - | - | - | - |
| 1777872805 | 12.22° C | 54% | 1016 hPa | - | - | - | - |
| 1777871904 | 10° C | 58% | 1016 hPa | - | - | - | - |
| 1777871013 | 10° C | 58% | 1016 hPa | - | - | - | - |
| 1777870104 | 7.78° C | 71% | 1016 hPa | - | - | - | - |
| 1777869203 | 7.78° C | 71% | 1016 hPa | - | - | - | - |
| 1777868304 | 7.78° C | 71% | 1016 hPa | - | - | - | - |
| 1777867403 | 7.78° C | 71% | 1016 hPa | - | - | - | - |
| 1777866504 | 7.22° C | 66% | 1016 hPa | - | - | - | - |
| 1777865603 | 7.22° C | 66% | 1016 hPa | - | - | - | - |
| 1777864703 | 8.89° C | 58% | 1016 hPa | - | - | - | - |
| 1777863881 | 8.89° C | 58% | 1016 hPa | - | - | - | - |
| 1777862904 | 8.89° C | 58% | 1016 hPa | - | - | - | - |
| 1777862003 | 8.89° C | 58% | 1016 hPa | - | - | - | - |
| 1777861103 | 8.89° C | 54% | 1016 hPa | - | - | - | - |
| 1777860203 | 8.89° C | 54% | 1016 hPa | - | - | - | - |
| 1777859303 | 8.89° C | 58% | 1016 hPa | - | - | - | - |
* Rain since midnight (hover to see other rain measurements)
** Current wind speed in m/s (hover to see current wind gust speed)